createdAt,value
2019-03-22T00:01:34.511Z,24.05
2019-03-22T00:04:04.212Z,27.73
2019-03-22T00:06:34.356Z,26.15
2019-03-22T00:09:05.283Z,26.62
2019-03-22T00:11:35.395Z,26.70
2019-03-22T00:14:06.361Z,27.60
2019-03-22T00:16:36.094Z,26.02
2019-03-22T00:19:06.810Z,27.27
2019-03-22T00:21:36.796Z,26.85
2019-03-22T00:24:06.451Z,27.77
2019-03-22T00:26:36.206Z,26.45
2019-03-22T00:29:06.234Z,26.97
2019-03-22T00:31:35.923Z,26.82
2019-03-22T00:34:05.634Z,27.22
2019-03-22T00:36:36.276Z,28.87
2019-03-22T00:39:06.208Z,26.30
2019-03-22T00:41:36.418Z,25.97
2019-03-22T00:44:06.346Z,27.20
2019-03-22T00:46:36.084Z,27.17
2019-03-22T00:49:05.727Z,28.77
2019-03-22T00:51:35.391Z,28.60
2019-03-22T00:54:05.057Z,30.68
2019-03-22T00:56:35.689Z,29.77
2019-03-22T00:59:05.336Z,29.07
2019-03-22T01:01:36.089Z,29.52
2019-03-22T01:04:06.046Z,29.77
2019-03-22T01:06:35.710Z,28.23
2019-03-22T01:09:06.086Z,33.88
2019-03-22T01:11:35.798Z,32.93
2019-03-22T01:14:05.587Z,33.60
2019-03-22T01:16:36.365Z,34.78
2019-03-22T01:19:06.353Z,34.10
2019-03-22T01:21:36.001Z,36.35
2019-03-22T01:24:05.662Z,35.68
2019-03-22T01:26:35.682Z,35.23
2019-03-22T01:29:05.703Z,35.38
2019-03-22T01:31:35.359Z,35.48
2019-03-22T01:34:05.025Z,39.40
2019-03-22T01:36:34.676Z,39.55
2019-03-22T01:39:06.156Z,41.45
2019-03-22T01:41:36.154Z,42.60
2019-03-22T01:44:06.113Z,41.80
2019-03-22T01:46:35.794Z,46.50
2019-03-22T01:49:05.431Z,42.62
2019-03-22T01:51:35.073Z,46.75
2019-03-22T01:54:04.821Z,47.00
2019-03-22T01:56:34.479Z,45.90
2019-03-22T01:59:04.148Z,45.83
2019-03-22T02:01:34.119Z,48.60
2019-03-22T02:04:04.120Z,47.05
2019-03-22T02:06:33.755Z,46.28
2019-03-22T02:09:04.046Z,48.38
2019-03-22T02:11:33.693Z,45.28
2019-03-22T02:14:03.365Z,47.78
2019-03-22T02:16:33.017Z,44.55
2019-03-22T02:19:02.680Z,49.60
2019-03-22T02:21:32.730Z,47.48
2019-03-22T02:24:02.386Z,48.13
2019-03-22T02:26:32.390Z,45.88
2019-03-22T02:29:02.070Z,47.33
2019-03-22T02:31:31.732Z,45.12
2019-03-22T02:34:01.372Z,41.23
2019-03-22T02:36:31.027Z,45.05
2019-03-22T02:39:00.683Z,44.45
2019-03-22T02:41:31.939Z,42.10
2019-03-22T02:44:01.598Z,43.80
2019-03-22T02:46:31.325Z,41.85
2019-03-22T02:49:01.263Z,42.90
2019-03-22T02:51:30.949Z,44.90
2019-03-22T02:54:00.892Z,43.28
2019-03-22T02:56:30.539Z,41.95
2019-03-22T02:59:00.188Z,41.20
2019-03-22T03:01:29.930Z,42.83
2019-03-22T03:03:59.608Z,42.15
2019-03-22T03:06:29.254Z,41.85
2019-03-22T03:08:59.308Z,42.43
2019-03-22T03:11:28.951Z,41.58
2019-03-22T03:13:58.662Z,43.42
2019-03-22T03:16:28.354Z,43.38
2019-03-22T03:18:58.078Z,43.58
2019-03-22T03:21:28.051Z,40.00
2019-03-22T03:23:57.716Z,41.48
2019-03-22T03:26:28.417Z,43.98
2019-03-22T03:28:58.076Z,42.93
2019-03-22T03:31:28.807Z,43.60
2019-03-22T03:33:58.481Z,42.43
2019-03-22T03:36:28.174Z,42.27
2019-03-22T03:38:58.182Z,41.83
2019-03-22T03:41:27.810Z,43.42
2019-03-22T03:43:57.471Z,42.55
2019-03-22T03:46:27.202Z,41.37
2019-03-22T03:48:56.856Z,40.60
2019-03-22T03:51:26.574Z,42.33
2019-03-22T03:53:56.237Z,41.45
2019-03-22T03:56:26.259Z,41.18
2019-03-22T03:58:55.919Z,40.60
2019-03-22T04:01:25.645Z,40.60
2019-03-22T04:03:55.286Z,38.13
2019-03-22T04:06:24.966Z,39.63
2019-03-22T04:08:54.671Z,38.73
2019-03-22T04:11:24.328Z,40.88
2019-03-22T04:13:54.325Z,42.03
2019-03-22T04:16:23.960Z,39.92
2019-03-22T04:18:53.623Z,38.85
2019-03-22T04:21:23.271Z,39.18
2019-03-22T04:23:53.175Z,37.48
2019-03-22T04:26:22.882Z,39.50
2019-03-22T04:29:06.587Z,38.48
2019-03-22T04:31:24.560Z,39.05
2019-03-22T04:33:54.275Z,40.28
2019-03-22T04:36:24.268Z,38.40
2019-03-22T04:38:53.974Z,39.55
2019-03-22T04:41:23.913Z,39.67
2019-03-22T04:43:53.604Z,40.35
2019-03-22T04:46:23.274Z,39.58
2019-03-22T04:48:53.250Z,39.83
2019-03-22T04:51:23.254Z,39.67
2019-03-22T04:53:53.261Z,39.30
2019-03-22T04:56:23.302Z,39.73
2019-03-22T04:58:52.973Z,39.55
2019-03-22T05:01:22.631Z,39.40
2019-03-22T05:03:52.649Z,41.58
2019-03-22T05:06:22.320Z,36.38
2019-03-22T05:08:52.821Z,41.15
2019-03-22T05:11:22.465Z,38.75
2019-03-22T05:13:52.233Z,39.55
2019-03-22T05:16:21.901Z,40.50
2019-03-22T05:18:51.567Z,40.40
2019-03-22T05:21:22.540Z,38.92
2019-03-22T05:23:52.541Z,41.98
2019-03-22T05:26:22.552Z,39.03
2019-03-22T05:28:52.664Z,38.70
2019-03-22T05:31:44.086Z,41.08
2019-03-22T05:34:13.745Z,42.15
2019-03-22T05:36:43.490Z,38.38
2019-03-22T05:39:13.151Z,40.30
2019-03-22T05:41:42.825Z,41.18
2019-03-22T05:44:12.849Z,41.85
2019-03-22T05:46:42.950Z,42.45
2019-03-22T05:49:12.609Z,41.45
2019-03-22T05:51:42.289Z,42.38
2019-03-22T05:54:11.949Z,42.78
2019-03-22T05:56:41.646Z,42.43
2019-03-22T05:59:11.419Z,41.30
2019-03-22T06:01:41.182Z,40.50
2019-03-22T06:04:11.232Z,41.55
2019-03-22T06:06:40.931Z,42.40
2019-03-22T06:09:10.593Z,41.15
2019-03-22T06:11:40.609Z,40.17
2019-03-22T06:14:10.276Z,41.37
2019-03-22T06:16:40.203Z,41.10
2019-03-22T06:19:09.875Z,41.02
2019-03-22T06:21:39.619Z,41.40
2019-03-22T06:24:09.296Z,41.65
2019-03-22T06:26:38.999Z,40.15
2019-03-22T06:29:08.678Z,40.85
2019-03-22T06:31:38.750Z,39.90
2019-03-22T06:34:08.987Z,41.28
2019-03-22T06:36:38.993Z,41.00
2019-03-22T06:39:08.680Z,39.55
2019-03-22T06:41:38.490Z,41.68
2019-03-22T06:44:08.172Z,40.60
2019-03-22T06:46:40.611Z,40.28
2019-03-22T06:49:10.710Z,40.65
2019-03-22T06:51:40.730Z,41.30
2019-03-22T06:54:10.492Z,40.80
2019-03-22T06:56:40.232Z,42.62
2019-03-22T06:59:10.273Z,40.17
2019-03-22T07:01:40.020Z,41.70
2019-03-22T07:04:09.748Z,41.75
2019-03-22T07:06:39.421Z,41.90
2019-03-22T07:09:09.086Z,43.42
2019-03-22T07:11:38.757Z,43.40
2019-03-22T07:14:08.465Z,43.58
2019-03-22T07:16:38.155Z,42.15
2019-03-22T07:19:07.885Z,41.90
2019-03-22T07:21:37.652Z,41.80
2019-03-22T07:24:07.434Z,39.55
2019-03-22T07:26:37.114Z,39.45
2019-03-22T07:29:06.775Z,41.18
2019-03-22T07:31:36.455Z,39.23
2019-03-22T07:34:06.503Z,38.25
2019-03-22T07:36:36.570Z,41.05
2019-03-22T07:39:08.292Z,39.70
2019-03-22T07:41:38.270Z,41.48
2019-03-22T07:44:07.932Z,41.02
2019-03-22T07:46:38.692Z,41.75
2019-03-22T07:49:08.423Z,43.05
2019-03-22T07:51:38.125Z,41.15
2019-03-22T07:54:07.791Z,38.10
2019-03-22T07:56:37.772Z,39.08
2019-03-22T07:59:09.815Z,38.25
2019-03-22T08:01:39.239Z,38.80
2019-03-22T08:04:09.393Z,37.40
2019-03-22T08:06:39.048Z,35.90
2019-03-22T08:09:09.602Z,34.27
2019-03-22T08:11:39.500Z,37.08
2019-03-22T08:14:09.534Z,36.20
2019-03-22T08:16:40.181Z,35.92
2019-03-22T08:19:10.302Z,34.85
2019-03-22T08:21:41.988Z,36.13
2019-03-22T08:24:11.670Z,37.28
2019-03-22T08:26:41.634Z,35.00
2019-03-22T08:29:11.654Z,36.25
2019-03-22T08:31:41.318Z,36.23
2019-03-22T08:34:11.327Z,35.35
2019-03-22T08:36:41.024Z,35.25
2019-03-22T08:39:11.108Z,36.50
2019-03-22T08:41:41.196Z,37.60
2019-03-22T08:44:10.884Z,36.48
2019-03-22T08:46:41.515Z,36.70
2019-03-22T08:49:11.275Z,37.25
2019-03-22T08:51:40.957Z,34.48
2019-03-22T08:54:10.823Z,34.53
2019-03-22T08:56:40.906Z,33.10
2019-03-22T08:59:13.381Z,33.90
2019-03-22T09:01:42.373Z,32.13
2019-03-22T09:04:12.034Z,32.88
2019-03-22T09:06:42.116Z,33.20
2019-03-22T09:09:11.801Z,31.48
2019-03-22T09:11:41.547Z,29.87
2019-03-22T09:14:11.204Z,32.15
2019-03-22T09:16:40.981Z,31.42
2019-03-22T09:19:11.026Z,32.75
2019-03-22T09:21:41.094Z,29.63
2019-03-22T09:24:10.811Z,30.00
2019-03-22T09:26:47.520Z,30.55
2019-03-22T09:29:11.907Z,31.42
2019-03-22T09:31:41.634Z,31.12
2019-03-22T09:34:11.784Z,30.15
2019-03-22T09:36:41.494Z,30.50
2019-03-22T09:39:11.436Z,29.32
2019-03-22T09:41:41.224Z,30.77
2019-03-22T09:44:10.918Z,31.25
2019-03-22T09:46:40.945Z,31.68
2019-03-22T09:49:10.681Z,29.52
2019-03-22T09:51:40.505Z,32.33
2019-03-22T09:54:10.195Z,30.62
2019-03-22T09:56:46.844Z,32.60
2019-03-22T09:59:11.271Z,33.83
2019-03-22T10:01:41.335Z,33.45
2019-03-22T10:04:11.350Z,33.48
2019-03-22T10:06:41.104Z,36.45
2019-03-22T10:09:10.826Z,34.50
2019-03-22T10:11:40.866Z,33.80
2019-03-22T10:14:10.733Z,35.35
2019-03-22T10:16:40.509Z,38.60
2019-03-22T10:19:10.227Z,37.70
2019-03-22T10:21:39.941Z,36.42
2019-03-22T10:24:09.615Z,35.52
2019-03-22T10:26:39.626Z,36.40
2019-03-22T10:29:09.558Z,36.42
2019-03-22T10:31:39.228Z,36.10
2019-03-22T10:34:08.905Z,35.98
2019-03-22T10:36:38.600Z,33.15
2019-03-22T10:39:08.993Z,33.10
2019-03-22T10:41:38.718Z,32.50
2019-03-22T10:44:08.443Z,33.40
2019-03-22T10:46:38.429Z,30.65
2019-03-22T10:49:08.124Z,31.25
2019-03-22T10:51:38.122Z,31.15
2019-03-22T10:54:07.807Z,30.32
2019-03-22T10:56:37.469Z,29.85
2019-03-22T10:59:07.177Z,30.15
2019-03-22T11:01:46.913Z,29.18
2019-03-22T11:06:38.410Z,28.07
2019-03-22T11:09:08.652Z,27.48
2019-03-22T11:11:38.305Z,26.87
2019-03-22T11:14:07.998Z,29.23
2019-03-22T11:16:37.752Z,28.42
2019-03-22T11:19:07.501Z,28.90
2019-03-22T11:21:37.220Z,30.37
2019-03-22T11:24:07.209Z,29.98
2019-03-22T11:26:36.882Z,30.82
2019-03-22T11:29:06.535Z,30.50
2019-03-22T11:31:40.087Z,30.68
2019-03-22T11:34:10.742Z,34.25
2019-03-22T11:36:40.749Z,32.15
2019-03-22T11:39:15.370Z,33.55
2019-03-22T11:41:42.458Z,35.10
2019-03-22T11:44:12.130Z,33.88
2019-03-22T11:46:41.825Z,40.70
2019-03-22T11:49:11.766Z,36.60
2019-03-22T11:51:41.549Z,34.98
2019-03-22T11:54:11.225Z,35.45
2019-03-22T11:56:40.908Z,38.25
2019-03-22T11:59:10.577Z,38.25
2019-03-22T12:01:41.211Z,39.23
2019-03-22T12:04:11.943Z,39.38
2019-03-22T12:06:41.827Z,37.42
2019-03-22T12:09:11.601Z,39.18
2019-03-22T12:11:42.208Z,40.65
2019-03-22T12:14:12.084Z,40.43
2019-03-22T12:16:41.766Z,41.10
2019-03-22T12:19:11.470Z,39.53
2019-03-22T12:21:41.195Z,38.13
2019-03-22T12:24:10.879Z,41.00
2019-03-22T12:26:40.619Z,41.05
2019-03-22T12:29:10.582Z,41.28
2019-03-22T12:31:40.275Z,42.25
2019-03-22T12:34:10.333Z,42.85
2019-03-22T12:36:40.326Z,42.15
2019-03-22T12:39:10.174Z,43.17
2019-03-22T12:41:40.152Z,43.75
2019-03-22T12:44:11.229Z,43.58
2019-03-22T12:46:41.050Z,42.60
2019-03-22T12:49:10.734Z,43.55
2019-03-22T12:51:40.474Z,41.68
2019-03-22T12:54:10.448Z,44.33
2019-03-22T12:56:40.195Z,42.85
2019-03-22T12:59:09.939Z,43.63
2019-03-22T13:01:39.703Z,45.10
2019-03-22T13:04:09.450Z,45.75
2019-03-22T13:06:39.123Z,45.58
2019-03-22T13:09:08.888Z,43.40
2019-03-22T13:11:38.925Z,44.35
2019-03-22T13:14:08.615Z,44.30
2019-03-22T13:16:38.306Z,45.60
2019-03-22T13:19:07.967Z,46.37
2019-03-22T13:21:37.651Z,46.00
2019-03-22T13:24:07.394Z,45.83
2019-03-22T13:26:37.075Z,45.60
2019-03-22T13:29:06.760Z,45.38
2019-03-22T13:31:36.452Z,47.90
2019-03-22T13:34:06.189Z,46.85
2019-03-22T13:36:35.878Z,45.10
2019-03-22T13:39:06.974Z,44.70
2019-03-22T13:41:36.721Z,46.30
2019-03-22T13:44:06.411Z,48.52
2019-03-22T13:46:40.136Z,48.05
2019-03-22T13:49:07.528Z,47.13
2019-03-22T13:51:37.635Z,48.13
2019-03-22T13:54:07.301Z,48.35
2019-03-22T13:56:37.074Z,46.77
2019-03-22T13:59:07.815Z,49.27
2019-03-22T14:01:37.632Z,48.80
2019-03-22T14:04:07.364Z,48.30
2019-03-22T14:06:37.456Z,50.73
2019-03-22T14:09:08.062Z,50.88
2019-03-22T14:11:37.830Z,50.33
2019-03-22T14:14:07.510Z,50.17
2019-03-22T14:16:37.218Z,51.05
2019-03-22T14:19:08.017Z,50.33
2019-03-22T14:21:37.684Z,51.05
2019-03-22T14:24:07.357Z,48.75
2019-03-22T14:26:37.032Z,50.60
2019-03-22T14:29:06.796Z,49.77
2019-03-22T14:31:36.824Z,50.67
2019-03-22T14:34:06.945Z,50.40
2019-03-22T14:36:36.674Z,50.38
2019-03-22T14:39:08.298Z,52.13
2019-03-22T14:41:38.246Z,49.27
2019-03-22T14:44:08.193Z,48.73
2019-03-22T14:46:37.974Z,49.08
2019-03-22T14:49:07.726Z,50.15
2019-03-22T14:51:37.787Z,49.58
2019-03-22T14:54:07.894Z,50.30
2019-03-22T14:56:37.557Z,49.63
2019-03-22T14:59:07.270Z,48.92
2019-03-22T15:01:36.942Z,49.00
2019-03-22T15:04:07.228Z,46.70
2019-03-22T15:06:37.933Z,48.58
2019-03-22T15:09:08.386Z,48.98
2019-03-22T15:11:38.137Z,47.55
2019-03-22T15:14:09.525Z,49.75
2019-03-22T15:16:57.047Z,46.85
2019-03-22T15:19:44.577Z,47.38
2019-03-22T15:22:22.077Z,48.08
2019-03-22T15:24:56.450Z,47.45
2019-03-22T15:27:27.832Z,47.73
2019-03-22T15:30:02.144Z,47.58
2019-03-22T15:32:54.508Z,47.60
2019-03-22T15:35:32.322Z,46.00
2019-03-22T15:38:19.108Z,48.50
2019-03-22T15:40:49.223Z,46.70
2019-03-22T15:43:19.957Z,48.10
2019-03-22T15:45:49.979Z,45.35
2019-03-22T15:48:19.646Z,46.30
2019-03-22T15:50:49.342Z,46.70
2019-03-22T15:53:19.110Z,46.58
2019-03-22T15:55:48.854Z,47.75
2019-03-22T15:58:18.524Z,46.58
2019-03-22T16:00:48.207Z,46.55
2019-03-22T16:03:17.886Z,46.53
2019-03-22T16:05:47.546Z,46.85
2019-03-22T16:08:17.234Z,46.00
2019-03-22T16:10:47.240Z,45.28
2019-03-22T16:13:17.287Z,46.80
2019-03-22T16:15:47.017Z,45.98
2019-03-22T16:18:16.977Z,47.85
2019-03-22T16:20:46.641Z,47.45
2019-03-22T16:23:16.324Z,48.75
2019-03-22T16:25:48.067Z,47.35
2019-03-22T16:28:18.100Z,49.38
2019-03-22T16:30:49.747Z,49.45
2019-03-22T16:33:19.493Z,50.03
2019-03-22T16:35:49.155Z,49.35
2019-03-22T16:38:18.891Z,50.78
2019-03-22T16:40:48.559Z,51.60
2019-03-22T16:43:18.310Z,53.68
2019-03-22T16:45:48.099Z,54.20
2019-03-22T16:48:17.850Z,54.85
2019-03-22T16:50:49.007Z,54.80
2019-03-22T16:53:19.097Z,56.55
2019-03-22T16:55:49.125Z,56.02
2019-03-22T16:58:18.816Z,56.25
2019-03-22T17:00:49.931Z,55.63
2019-03-22T17:03:19.918Z,57.60
2019-03-22T17:05:49.660Z,54.77
2019-03-22T17:08:19.337Z,56.18
2019-03-22T17:10:49.017Z,57.48
2019-03-22T17:13:18.971Z,53.23
2019-03-22T17:15:48.656Z,55.98
2019-03-22T17:18:18.335Z,57.13
2019-03-22T17:20:48.029Z,57.25
2019-03-22T17:23:18.125Z,57.65
2019-03-22T17:25:47.874Z,58.05
2019-03-22T17:28:17.845Z,58.68
2019-03-22T17:30:47.625Z,57.17
2019-03-22T17:33:17.303Z,58.87
2019-03-22T17:35:46.984Z,57.45
2019-03-22T17:38:16.699Z,57.50
2019-03-22T17:40:46.698Z,57.23
2019-03-22T17:43:16.378Z,57.62
2019-03-22T17:45:46.426Z,58.35
2019-03-22T17:48:16.098Z,58.45
2019-03-22T17:50:45.786Z,55.48
2019-03-22T17:53:15.766Z,56.85
2019-03-22T17:55:45.983Z,58.00
2019-03-22T17:58:16.044Z,57.85
2019-03-22T18:00:47.039Z,59.33
2019-03-22T18:03:16.719Z,58.20
2019-03-22T18:05:46.382Z,58.92
2019-03-22T18:08:16.377Z,57.23
2019-03-22T18:10:46.046Z,59.05
2019-03-22T18:13:15.767Z,59.63
2019-03-22T18:15:45.451Z,55.75
2019-03-22T18:18:15.129Z,56.58
2019-03-22T18:20:44.795Z,56.13
2019-03-22T18:23:14.483Z,57.40
2019-03-22T18:25:44.156Z,57.05
2019-03-22T18:28:13.840Z,57.58
2019-03-22T18:30:43.589Z,58.78
2019-03-22T18:33:13.321Z,59.80
2019-03-22T18:35:43.296Z,57.58
2019-03-22T18:38:13.251Z,56.68
2019-03-22T18:40:42.933Z,56.90
2019-03-22T18:43:12.961Z,57.53
2019-03-22T18:45:42.646Z,55.70
2019-03-22T18:48:12.319Z,57.38
2019-03-22T18:50:41.993Z,59.03
2019-03-22T18:53:12.088Z,56.90
2019-03-22T18:55:42.199Z,58.78
2019-03-22T18:58:11.932Z,58.17
2019-03-22T19:00:41.657Z,58.55
2019-03-22T19:03:11.341Z,57.33
2019-03-22T19:05:41.035Z,58.65
2019-03-22T19:08:11.146Z,57.00
2019-03-22T19:10:41.363Z,56.90
2019-03-22T19:13:11.979Z,58.15
2019-03-22T19:15:42.220Z,57.08
2019-03-22T19:18:12.230Z,59.08
2019-03-22T19:20:44.914Z,58.58
2019-03-22T19:23:14.587Z,58.20
2019-03-22T19:25:46.286Z,55.15
2019-03-22T19:28:16.026Z,58.55
2019-03-22T19:30:45.705Z,58.02
2019-03-22T19:33:15.448Z,59.25
2019-03-22T19:35:45.178Z,61.28
2019-03-22T19:38:15.234Z,60.20
2019-03-22T19:40:45.247Z,58.95
2019-03-22T19:43:14.935Z,59.65
2019-03-22T19:45:44.980Z,52.03
2019-03-22T19:48:14.736Z,57.50
2019-03-22T19:50:44.798Z,59.55
2019-03-22T19:53:14.483Z,61.85
2019-03-22T19:55:44.237Z,58.78
2019-03-22T19:58:13.943Z,58.60
2019-03-22T20:00:43.606Z,58.13
2019-03-22T20:03:13.654Z,61.08
2019-03-22T20:05:43.333Z,59.55
2019-03-22T20:08:13.975Z,61.18
2019-03-22T20:10:44.122Z,61.90
2019-03-22T20:13:13.824Z,60.95
2019-03-22T20:15:43.559Z,60.75
2019-03-22T20:18:14.416Z,61.45
2019-03-22T20:20:44.101Z,61.10
2019-03-22T20:23:13.790Z,62.03
2019-03-22T20:25:46.416Z,61.48
2019-03-22T20:28:16.228Z,60.67
2019-03-22T20:30:46.309Z,60.92
2019-03-22T20:33:16.052Z,60.78
2019-03-22T20:35:46.025Z,61.48
2019-03-22T20:38:16.139Z,60.50
2019-03-22T20:40:45.804Z,61.33
2019-03-22T20:43:15.505Z,56.95
2019-03-22T20:45:45.188Z,60.50
2019-03-22T20:48:14.951Z,61.30
2019-03-22T20:50:44.899Z,63.92
2019-03-22T20:53:14.583Z,63.20
2019-03-22T20:55:44.253Z,59.85
2019-03-22T20:58:13.954Z,60.83
2019-03-22T21:00:43.931Z,61.80
2019-03-22T21:03:13.957Z,60.58
2019-03-22T21:05:43.698Z,62.75
2019-03-22T21:08:13.385Z,63.52
2019-03-22T21:10:44.077Z,63.13
2019-03-22T21:13:13.758Z,63.73
2019-03-22T21:15:43.839Z,62.80
2019-03-22T21:18:13.848Z,60.55
2019-03-22T21:20:43.540Z,64.47
2019-03-22T21:23:13.220Z,64.10
2019-03-22T21:25:42.974Z,63.00
2019-03-22T21:28:12.735Z,63.73
2019-03-22T21:30:42.738Z,63.13
2019-03-22T21:33:13.504Z,62.62
2019-03-22T21:35:43.233Z,64.15
2019-03-22T21:38:12.929Z,61.50
2019-03-22T21:40:42.670Z,58.30
2019-03-22T21:43:12.362Z,63.38
2019-03-22T21:45:42.403Z,61.92
2019-03-22T21:48:12.358Z,65.05
2019-03-22T21:50:42.327Z,63.80
2019-03-22T21:53:12.042Z,59.25
2019-03-22T21:55:41.716Z,62.43
2019-03-22T21:58:11.769Z,64.42
2019-03-22T22:00:41.519Z,65.05
2019-03-22T22:03:11.208Z,63.15
2019-03-22T22:05:47.760Z,66.28
2019-03-22T22:08:12.273Z,66.22
2019-03-22T22:10:42.022Z,61.85
2019-03-22T22:13:11.739Z,66.82
2019-03-22T22:15:41.777Z,64.80
2019-03-22T22:18:11.673Z,65.75
2019-03-22T22:20:41.357Z,66.05
2019-03-22T22:23:11.446Z,67.20
2019-03-22T22:25:41.171Z,64.72
2019-03-22T22:28:10.865Z,64.62
2019-03-22T22:30:40.614Z,62.95
2019-03-22T22:33:10.331Z,65.97
2019-03-22T22:35:40.063Z,63.58
2019-03-22T22:38:10.180Z,67.22
2019-03-22T22:40:39.852Z,64.47
2019-03-22T22:43:09.918Z,66.90
2019-03-22T22:45:39.652Z,63.45
2019-03-22T22:48:09.841Z,63.65
2019-03-22T22:50:39.515Z,64.53
2019-03-22T22:53:09.201Z,65.12
2019-03-22T22:55:38.945Z,64.47
2019-03-22T22:58:09.398Z,64.00
2019-03-22T23:00:39.529Z,64.92
2019-03-22T23:03:09.516Z,67.35
2019-03-22T23:05:39.191Z,65.00
2019-03-22T23:08:09.046Z,64.70
2019-03-22T23:10:38.794Z,64.60
2019-03-22T23:13:08.877Z,62.58
2019-03-22T23:15:38.566Z,65.32
2019-03-22T23:18:08.317Z,63.35
2019-03-22T23:20:38.065Z,63.38
2019-03-22T23:23:08.030Z,64.50
2019-03-22T23:25:37.698Z,65.72
2019-03-22T23:28:08.173Z,67.03
2019-03-22T23:30:37.851Z,65.28
2019-03-22T23:33:07.610Z,65.25
2019-03-22T23:35:37.317Z,61.40
2019-03-22T23:38:07.069Z,65.67
2019-03-22T23:40:37.024Z,63.42
2019-03-22T23:43:06.709Z,66.25
2019-03-22T23:45:36.378Z,63.55
2019-03-22T23:48:06.131Z,62.93
2019-03-22T23:50:36.108Z,60.60
2019-03-22T23:53:05.797Z,62.10
2019-03-22T23:55:35.458Z,63.65
2019-03-22T23:58:05.133Z,60.40
